createdAt,value
2019-03-06T00:00:59.110Z,3.53
2019-03-06T00:03:28.547Z,3.52
2019-03-06T00:05:57.955Z,3.48
2019-03-06T00:08:27.388Z,3.46
2019-03-06T00:10:56.791Z,3.46
2019-03-06T00:13:26.231Z,3.44
2019-03-06T00:15:55.654Z,3.42
2019-03-06T00:18:25.104Z,3.39
2019-03-06T00:20:54.512Z,3.35
2019-03-06T00:23:23.912Z,3.34
2019-03-06T00:25:53.282Z,3.30
2019-03-06T00:28:22.719Z,3.25
2019-03-06T00:30:52.124Z,3.23
2019-03-06T00:33:21.560Z,3.24
2019-03-06T00:35:52.536Z,3.26
2019-03-06T00:38:22.149Z,3.23
2019-03-06T00:40:53.215Z,3.19
2019-03-06T00:43:22.672Z,3.16
2019-03-06T00:45:52.075Z,3.16
2019-03-06T00:48:21.569Z,3.16
2019-03-06T00:50:51.160Z,3.16
2019-03-06T00:53:20.665Z,3.14
2019-03-06T00:55:50.158Z,3.14
2019-03-06T00:58:19.619Z,3.09
2019-03-06T01:00:49.045Z,3.09
2019-03-06T01:03:18.428Z,3.02
2019-03-06T01:05:47.852Z,3.04
2019-03-06T01:08:17.313Z,3.04
2019-03-06T01:10:46.797Z,3.02
2019-03-06T01:13:16.255Z,3.03
2019-03-06T01:15:45.684Z,3.02
2019-03-06T01:18:15.152Z,3.00
2019-03-06T01:20:44.645Z,2.98
2019-03-06T01:23:14.118Z,3.00
2019-03-06T01:25:43.775Z,2.98
2019-03-06T01:28:13.237Z,2.98
2019-03-06T01:30:42.734Z,2.97
2019-03-06T01:33:29.798Z,2.99
2019-03-06T01:36:06.640Z,2.99
2019-03-06T01:38:37.737Z,2.96
2019-03-06T01:41:17.736Z,2.95
2019-03-06T01:43:48.841Z,2.95
2019-03-06T01:46:18.346Z,2.92
2019-03-06T01:48:47.799Z,2.94
2019-03-06T01:51:17.284Z,2.93
2019-03-06T01:53:46.743Z,2.88
2019-03-06T01:56:16.241Z,2.81
2019-03-06T01:58:45.704Z,2.78
2019-03-06T02:01:15.266Z,2.76
2019-03-06T02:03:44.730Z,2.74
2019-03-06T02:06:14.220Z,2.75
2019-03-06T02:08:43.613Z,2.75
2019-03-06T02:11:13.034Z,2.75
2019-03-06T02:13:42.434Z,2.75
2019-03-06T02:16:11.853Z,2.72
2019-03-06T02:18:41.524Z,2.75
2019-03-06T02:21:10.944Z,2.75
2019-03-06T02:23:40.340Z,2.75
2019-03-06T02:26:09.770Z,2.77
2019-03-06T02:28:39.161Z,2.75
2019-03-06T02:31:08.664Z,2.74
2019-03-06T02:33:38.209Z,2.70
2019-03-06T02:36:07.651Z,2.70
2019-03-06T02:38:37.505Z,2.66
2019-03-06T02:41:06.940Z,2.62
2019-03-06T02:43:36.542Z,2.58
2019-03-06T02:46:05.949Z,2.57
2019-03-06T02:48:35.688Z,2.56
2019-03-06T02:51:05.247Z,2.55
2019-03-06T02:53:34.673Z,2.51
2019-03-06T02:56:04.245Z,2.49
2019-03-06T02:58:38.251Z,2.50
2019-03-06T03:01:12.057Z,2.45
2019-03-06T03:03:58.838Z,2.41
2019-03-06T03:06:29.870Z,2.41
2019-03-06T03:08:59.290Z,2.38
2019-03-06T03:11:28.685Z,2.40
2019-03-06T03:13:58.278Z,2.39
2019-03-06T03:16:27.751Z,2.36
2019-03-06T03:18:57.246Z,2.38
2019-03-06T03:21:27.097Z,2.34
2019-03-06T03:23:56.707Z,2.34
2019-03-06T03:26:26.165Z,2.31
2019-03-06T03:28:55.671Z,2.30
2019-03-06T03:31:25.069Z,2.30
2019-03-06T03:33:54.506Z,2.30
2019-03-06T03:36:23.908Z,2.31
2019-03-06T03:38:53.401Z,2.29
2019-03-06T03:41:23.773Z,2.33
2019-03-06T03:43:53.206Z,2.31
2019-03-06T03:46:22.599Z,2.30
2019-03-06T03:48:52.018Z,2.32
2019-03-06T03:51:21.480Z,2.32
2019-03-06T03:53:51.182Z,2.35
2019-03-06T03:56:20.579Z,2.36
2019-03-06T03:58:50.009Z,2.37
2019-03-06T04:01:19.415Z,2.33
2019-03-06T04:03:48.840Z,2.35
2019-03-06T04:06:18.517Z,2.34
2019-03-06T04:08:48.014Z,2.35
2019-03-06T04:11:17.408Z,2.33
2019-03-06T04:13:46.815Z,2.29
2019-03-06T04:16:16.249Z,2.31
2019-03-06T04:18:45.991Z,2.29
2019-03-06T04:21:15.420Z,2.25
2019-03-06T04:23:44.814Z,2.19
2019-03-06T04:26:14.175Z,2.15
2019-03-06T04:28:43.622Z,2.12
2019-03-06T04:31:13.138Z,2.12
2019-03-06T04:33:42.505Z,2.10
2019-03-06T04:36:11.848Z,2.07
2019-03-06T04:38:41.220Z,2.02
2019-03-06T04:41:10.559Z,2.05
2019-03-06T04:43:40.207Z,1.98
2019-03-06T04:46:09.552Z,1.95
2019-03-06T04:48:38.918Z,1.91
2019-03-06T04:51:08.266Z,1.90
2019-03-06T04:53:37.636Z,1.94
2019-03-06T04:56:07.436Z,1.91
2019-03-06T04:58:36.776Z,1.88
2019-03-06T05:01:06.455Z,1.85
2019-03-06T05:03:35.798Z,1.84
2019-03-06T05:06:05.628Z,1.85
2019-03-06T05:08:35.215Z,1.83
2019-03-06T05:11:04.594Z,1.77
2019-03-06T05:13:33.934Z,1.81
2019-03-06T05:16:03.322Z,1.75
2019-03-06T05:18:34.286Z,1.72
2019-03-06T05:21:03.655Z,1.72
2019-03-06T05:23:33.060Z,1.64
2019-03-06T05:26:02.744Z,1.50
2019-03-06T05:28:32.089Z,1.47
2019-03-06T05:31:01.461Z,1.44
2019-03-06T05:33:30.804Z,1.47
2019-03-06T05:36:12.228Z,1.44
2019-03-06T05:38:44.826Z,1.45
2019-03-06T05:41:14.188Z,1.42
2019-03-06T05:43:43.541Z,1.42
2019-03-06T05:46:12.914Z,1.39
2019-03-06T05:48:42.324Z,1.32
2019-03-06T05:51:11.767Z,1.35
2019-03-06T05:53:41.193Z,1.37
2019-03-06T05:56:10.643Z,1.39
2019-03-06T05:58:39.988Z,1.46
2019-03-06T06:01:09.398Z,1.49
2019-03-06T06:03:38.740Z,1.50
2019-03-06T06:06:08.115Z,1.50
2019-03-06T06:08:37.456Z,1.59
2019-03-06T06:11:06.894Z,1.63
2019-03-06T06:13:36.682Z,1.61
2019-03-06T06:16:06.502Z,1.67
2019-03-06T06:18:35.864Z,1.69
2019-03-06T06:21:09.339Z,1.71
2019-03-06T06:23:43.113Z,1.74
2019-03-06T06:26:12.588Z,1.82
2019-03-06T06:28:41.933Z,1.91
2019-03-06T06:31:11.310Z,2.02
2019-03-06T06:33:40.689Z,2.03
2019-03-06T06:36:10.034Z,2.11
2019-03-06T06:38:39.422Z,2.14
2019-03-06T06:41:08.770Z,2.14
2019-03-06T06:43:38.182Z,2.27
2019-03-06T06:46:07.728Z,2.28
2019-03-06T06:48:37.387Z,2.30
2019-03-06T06:51:13.201Z,2.34
2019-03-06T06:53:46.729Z,2.41
2019-03-06T06:56:34.349Z,2.46
2019-03-06T06:59:07.465Z,2.49
2019-03-06T07:01:56.380Z,2.49
2019-03-06T07:04:59.060Z,2.58
2019-03-06T07:07:35.973Z,2.70
2019-03-06T07:10:25.216Z,2.79
2019-03-06T07:13:05.293Z,2.85
2019-03-06T07:15:54.179Z,2.91
2019-03-06T07:18:25.164Z,3.07
2019-03-06T07:20:58.907Z,3.12
2019-03-06T07:23:36.021Z,3.15
2019-03-06T07:26:22.117Z,3.18
2019-03-06T07:28:58.791Z,3.21
2019-03-06T07:31:41.870Z,3.42
2019-03-06T07:34:12.863Z,3.57
2019-03-06T07:36:49.741Z,3.72
2019-03-06T07:39:21.794Z,3.84
2019-03-06T07:41:58.485Z,4.01
2019-03-06T07:44:45.504Z,4.13
2019-03-06T07:47:22.199Z,4.25
2019-03-06T07:49:58.972Z,4.39
2019-03-06T07:52:35.935Z,4.50
2019-03-06T07:55:21.936Z,4.73
2019-03-06T07:58:16.723Z,4.88
2019-03-06T08:00:46.065Z,4.90
2019-03-06T08:03:16.684Z,5.02
2019-03-06T08:05:46.101Z,5.24
2019-03-06T08:08:15.481Z,5.39
2019-03-06T08:10:44.832Z,5.43
2019-03-06T08:13:18.803Z,5.52
2019-03-06T08:15:49.794Z,5.52
2019-03-06T08:18:23.456Z,5.83
2019-03-06T08:21:12.301Z,6.01
2019-03-06T08:23:54.764Z,6.05
2019-03-06T08:26:24.600Z,6.12
2019-03-06T08:28:54.320Z,6.33
2019-03-06T08:31:25.306Z,6.58
2019-03-06T08:33:54.694Z,6.77
2019-03-06T08:36:25.105Z,6.87
2019-03-06T08:38:54.481Z,6.93
2019-03-06T08:41:23.820Z,6.93
2019-03-06T08:43:53.280Z,7.11
2019-03-06T08:46:36.184Z,7.19
2019-03-06T08:49:19.210Z,7.34
2019-03-06T08:51:55.974Z,7.65
2019-03-06T08:54:29.954Z,7.98
2019-03-06T08:57:03.709Z,8.43
2019-03-06T08:59:49.808Z,9.13
2019-03-06T09:02:21.062Z,9.83
2019-03-06T09:04:52.072Z,10.85
2019-03-06T09:07:26.017Z,11.59
2019-03-06T09:10:02.521Z,12.25
2019-03-06T09:12:39.307Z,12.78
2019-03-06T09:15:29.985Z,13.56
2019-03-06T09:18:09.828Z,12.53
2019-03-06T09:20:43.263Z,12.68
2019-03-06T09:23:32.313Z,12.88
2019-03-06T09:26:04.087Z,14.22
2019-03-06T09:28:38.465Z,14.99
2019-03-06T09:31:24.416Z,15.81
2019-03-06T09:34:07.574Z,15.95
2019-03-06T09:36:55.031Z,15.27
2019-03-06T09:39:31.938Z,14.77
2019-03-06T09:42:11.818Z,14.31
2019-03-06T09:44:45.752Z,14.48
2019-03-06T09:47:16.820Z,15.49
2019-03-06T09:49:47.862Z,16.30
2019-03-06T09:52:19.154Z,17.06
2019-03-06T09:54:55.036Z,16.35
2019-03-06T09:57:31.656Z,16.84
2019-03-06T10:00:18.317Z,16.74
2019-03-06T10:02:52.058Z,17.00
2019-03-06T10:05:25.952Z,16.77
2019-03-06T10:08:08.933Z,17.85
2019-03-06T10:10:47.734Z,17.18
2019-03-06T10:13:18.515Z,17.32
2019-03-06T10:15:49.507Z,17.82
2019-03-06T10:18:38.659Z,18.37
2019-03-06T10:21:08.004Z,18.60
2019-03-06T10:23:37.402Z,17.43
2019-03-06T10:26:06.763Z,17.78
2019-03-06T10:28:36.737Z,17.27
2019-03-06T10:31:06.403Z,17.26
2019-03-06T10:33:35.794Z,15.87
2019-03-06T10:36:05.561Z,15.12
2019-03-06T10:38:35.045Z,15.08
2019-03-06T10:41:04.432Z,15.82
2019-03-06T10:43:34.166Z,16.45
2019-03-06T10:46:03.881Z,15.94
2019-03-06T10:48:33.702Z,16.67
2019-03-06T10:51:03.099Z,17.69
2019-03-06T10:53:41.054Z,17.93
2019-03-06T10:56:03.981Z,17.21
2019-03-06T10:58:33.341Z,17.66
2019-03-06T11:01:02.824Z,17.02
2019-03-06T11:03:39.912Z,17.45
2019-03-06T11:06:09.942Z,17.83
2019-03-06T11:08:39.293Z,18.70
2019-03-06T11:11:08.958Z,19.52
2019-03-06T11:13:38.309Z,19.28
2019-03-06T11:16:08.594Z,19.03
2019-03-06T11:18:37.975Z,19.74
2019-03-06T11:21:07.744Z,19.67
2019-03-06T11:23:37.099Z,19.43
2019-03-06T11:26:07.463Z,18.47
2019-03-06T11:28:36.952Z,18.56
2019-03-06T11:31:06.408Z,17.77
2019-03-06T11:33:36.946Z,18.76
2019-03-06T11:36:06.694Z,19.30
2019-03-06T11:38:36.955Z,19.20
2019-03-06T11:41:06.903Z,18.96
2019-03-06T11:43:36.581Z,19.49
2019-03-06T11:46:06.210Z,20.17
2019-03-06T11:48:35.561Z,19.99
2019-03-06T11:51:05.878Z,21.06
2019-03-06T11:53:35.948Z,20.48
2019-03-06T11:56:05.846Z,20.37
2019-03-06T11:58:35.269Z,19.78
2019-03-06T12:01:07.962Z,20.76
2019-03-06T12:03:37.714Z,20.57
2019-03-06T12:06:07.283Z,21.33
2019-03-06T12:08:45.676Z,21.69
2019-03-06T12:11:08.649Z,22.18
2019-03-06T12:13:38.011Z,21.42
2019-03-06T12:16:07.737Z,21.17
2019-03-06T12:18:37.093Z,21.09
2019-03-06T12:21:06.920Z,21.44
2019-03-06T12:23:36.365Z,22.02
2019-03-06T12:26:05.717Z,22.14
2019-03-06T12:28:35.100Z,21.43
2019-03-06T12:31:07.467Z,20.17
2019-03-06T12:33:36.952Z,20.87
2019-03-06T12:36:06.645Z,21.70
2019-03-06T12:38:36.046Z,22.11
2019-03-06T12:41:05.392Z,22.33
2019-03-06T12:43:35.015Z,21.67
2019-03-06T12:46:10.321Z,21.46
2019-03-06T12:48:39.970Z,21.10
2019-03-06T12:51:09.482Z,22.26
2019-03-06T12:53:38.872Z,21.22
2019-03-06T12:56:08.404Z,21.70
2019-03-06T12:58:37.948Z,20.96
2019-03-06T13:01:07.359Z,20.41
2019-03-06T13:03:36.801Z,21.01
2019-03-06T13:06:06.691Z,21.48
2019-03-06T13:08:36.467Z,21.06
2019-03-06T13:11:05.861Z,20.70
2019-03-06T13:13:36.050Z,20.86
2019-03-06T13:16:05.392Z,19.62
2019-03-06T13:18:34.866Z,20.27
2019-03-06T13:21:05.249Z,20.64
2019-03-06T13:23:34.825Z,20.29
2019-03-06T13:26:10.232Z,20.88
2019-03-06T13:28:35.330Z,20.20
2019-03-06T13:31:04.826Z,19.61
2019-03-06T13:33:44.796Z,18.37
2019-03-06T13:36:14.217Z,17.91
2019-03-06T13:38:43.672Z,16.88
2019-03-06T13:41:14.485Z,16.37
2019-03-06T13:43:44.519Z,16.10
2019-03-06T13:46:13.972Z,15.80
2019-03-06T13:48:43.359Z,15.10
2019-03-06T13:51:12.776Z,15.16
2019-03-06T13:53:42.166Z,14.76
2019-03-06T13:56:11.556Z,14.73
2019-03-06T13:58:40.936Z,14.46
2019-03-06T14:01:10.331Z,14.44
2019-03-06T14:03:39.816Z,14.03
2019-03-06T14:06:09.624Z,14.10
2019-03-06T14:08:39.065Z,13.99
2019-03-06T14:11:08.413Z,13.83
2019-03-06T14:13:38.093Z,13.89
2019-03-06T14:16:07.445Z,13.83
2019-03-06T14:18:37.167Z,13.99
2019-03-06T14:21:06.538Z,14.02
2019-03-06T14:23:35.883Z,14.03
2019-03-06T14:26:06.795Z,13.89
2019-03-06T14:28:36.254Z,13.72
2019-03-06T14:31:06.085Z,13.82
2019-03-06T14:33:35.435Z,13.89
2019-03-06T14:36:04.891Z,13.46
2019-03-06T14:38:34.253Z,13.36
2019-03-06T14:41:03.633Z,13.24
2019-03-06T14:43:33.018Z,13.31
2019-03-06T14:46:02.394Z,13.30
2019-03-06T14:48:31.747Z,13.11
2019-03-06T14:51:01.132Z,12.87
2019-03-06T14:53:30.555Z,12.55
2019-03-06T14:55:59.929Z,12.34
2019-03-06T14:58:29.284Z,12.12
2019-03-06T15:00:58.667Z,12.12
2019-03-06T15:03:28.013Z,12.08
2019-03-06T15:05:57.395Z,12.05
2019-03-06T15:08:26.745Z,11.94
2019-03-06T15:10:56.119Z,11.96
2019-03-06T15:13:25.468Z,12.06
2019-03-06T15:15:55.041Z,12.01
2019-03-06T15:18:24.387Z,12.05
2019-03-06T15:20:53.761Z,11.97
2019-03-06T15:23:23.108Z,11.97
2019-03-06T15:25:52.491Z,11.90
2019-03-06T15:28:21.918Z,11.87
2019-03-06T15:30:51.368Z,11.81
2019-03-06T15:33:20.721Z,11.76
2019-03-06T15:35:50.102Z,11.57
2019-03-06T15:38:19.453Z,11.60
2019-03-06T15:40:48.862Z,11.50
2019-03-06T15:43:19.782Z,11.48
2019-03-06T15:45:49.177Z,11.44
2019-03-06T15:48:18.554Z,11.31
2019-03-06T15:50:47.901Z,11.18
2019-03-06T15:53:24.162Z,11.05
2019-03-06T15:55:48.342Z,11.01
2019-03-06T15:58:17.731Z,10.91
2019-03-06T16:00:47.085Z,10.86
2019-03-06T16:03:16.476Z,10.80
2019-03-06T16:05:45.825Z,10.78
2019-03-06T16:08:15.204Z,10.72
2019-03-06T16:10:44.833Z,10.56
2019-03-06T16:13:14.213Z,10.48
2019-03-06T16:15:43.641Z,10.42
2019-03-06T16:18:13.037Z,10.40
2019-03-06T16:20:42.380Z,10.36
2019-03-06T16:23:11.825Z,10.27
2019-03-06T16:25:41.434Z,10.20
2019-03-06T16:28:10.815Z,10.14
2019-03-06T16:30:40.161Z,10.08
2019-03-06T16:33:09.765Z,10.04
2019-03-06T16:35:39.118Z,10.01
2019-03-06T16:38:08.948Z,9.93
2019-03-06T16:40:38.364Z,9.78
2019-03-06T16:43:07.743Z,9.76
2019-03-06T16:45:37.164Z,9.70
2019-03-06T16:48:06.888Z,9.59
2019-03-06T16:50:36.234Z,9.56
2019-03-06T16:53:06.033Z,9.49
2019-03-06T16:55:35.376Z,9.46
2019-03-06T16:58:05.023Z,9.38
2019-03-06T17:00:35.305Z,9.38
2019-03-06T17:03:05.753Z,9.33
2019-03-06T17:05:35.192Z,9.33
2019-03-06T17:08:04.690Z,9.25
2019-03-06T17:10:36.172Z,9.19
2019-03-06T17:13:05.597Z,9.16
2019-03-06T17:15:34.975Z,9.09
2019-03-06T17:18:04.321Z,9.09
2019-03-06T17:20:37.146Z,9.09
2019-03-06T17:23:06.915Z,9.11
2019-03-06T17:25:36.292Z,9.08
2019-03-06T17:28:05.843Z,9.10
2019-03-06T17:30:36.120Z,9.09
2019-03-06T17:33:10.973Z,9.09
2019-03-06T17:35:40.347Z,9.12
2019-03-06T17:38:14.511Z,9.13
2019-03-06T17:40:44.680Z,9.05
2019-03-06T17:43:14.108Z,9.05
2019-03-06T17:45:43.839Z,9.04
2019-03-06T17:48:13.176Z,8.96
2019-03-06T17:50:42.565Z,8.88
2019-03-06T17:53:11.911Z,8.82
2019-03-06T17:55:41.285Z,8.81
2019-03-06T17:58:10.636Z,8.72
2019-03-06T18:00:44.720Z,8.68
2019-03-06T18:03:16.173Z,8.68
2019-03-06T18:05:45.545Z,8.64
2019-03-06T18:08:14.888Z,8.57
2019-03-06T18:10:44.340Z,8.56
2019-03-06T18:13:13.866Z,8.52
2019-03-06T18:15:44.493Z,8.44
2019-03-06T18:18:14.039Z,8.38
2019-03-06T18:20:43.412Z,8.38
2019-03-06T18:23:12.774Z,8.43
2019-03-06T18:25:42.153Z,8.47
2019-03-06T18:28:11.574Z,8.51
2019-03-06T18:30:41.037Z,8.45
2019-03-06T18:33:10.548Z,8.37
2019-03-06T18:35:39.920Z,8.32
2019-03-06T18:38:09.265Z,8.26
2019-03-06T18:40:38.952Z,8.29
2019-03-06T18:43:09.800Z,8.29
2019-03-06T18:45:39.179Z,8.32
2019-03-06T18:48:08.526Z,8.25
2019-03-06T18:50:38.141Z,8.25
2019-03-06T18:53:07.561Z,8.20
2019-03-06T18:55:37.201Z,8.15
2019-03-06T18:58:06.919Z,8.15
2019-03-06T19:00:36.376Z,8.06
2019-03-06T19:03:05.731Z,8.05
2019-03-06T19:05:36.961Z,7.94
2019-03-06T19:08:06.950Z,7.90
2019-03-06T19:10:37.014Z,7.89
2019-03-06T19:13:06.928Z,7.87
2019-03-06T19:15:36.296Z,7.88
2019-03-06T19:18:06.136Z,7.85
2019-03-06T19:20:35.488Z,7.84
2019-03-06T19:23:04.942Z,7.81
2019-03-06T19:25:34.429Z,7.82
2019-03-06T19:28:04.315Z,7.83
2019-03-06T19:30:33.666Z,7.88
2019-03-06T19:33:03.105Z,7.79
2019-03-06T19:35:32.455Z,7.78
2019-03-06T19:38:01.838Z,7.72
2019-03-06T19:40:31.252Z,7.75
2019-03-06T19:43:00.703Z,7.72
2019-03-06T19:45:30.114Z,7.67
2019-03-06T19:47:59.553Z,7.63
2019-03-06T19:50:28.982Z,7.65
2019-03-06T19:52:58.432Z,7.62
2019-03-06T19:55:27.856Z,7.63
2019-03-06T19:58:08.354Z,7.56
2019-03-06T20:00:38.177Z,7.56
2019-03-06T20:03:09.005Z,7.57
2019-03-06T20:05:40.658Z,7.50
2019-03-06T20:08:12.645Z,7.44
2019-03-06T20:10:42.000Z,7.46
2019-03-06T20:13:12.200Z,7.46
2019-03-06T20:15:42.093Z,7.46
2019-03-06T20:18:11.652Z,7.43
2019-03-06T20:20:41.445Z,7.45
2019-03-06T20:23:10.905Z,7.43
2019-03-06T20:25:40.348Z,7.47
2019-03-06T20:28:09.832Z,7.42
2019-03-06T20:30:39.214Z,7.47
2019-03-06T20:33:08.740Z,7.47
2019-03-06T20:35:38.463Z,7.41
2019-03-06T20:38:07.886Z,7.38
2019-03-06T20:40:37.332Z,7.34
2019-03-06T20:43:07.004Z,7.28
2019-03-06T20:45:36.445Z,7.22
2019-03-06T20:48:05.788Z,7.21
2019-03-06T20:50:35.230Z,7.23
2019-03-06T20:53:04.583Z,7.22
2019-03-06T20:55:33.960Z,7.28
2019-03-06T20:58:03.583Z,7.26
2019-03-06T21:00:32.955Z,7.29
2019-03-06T21:03:02.293Z,7.26
2019-03-06T21:05:31.667Z,7.21
2019-03-06T21:08:01.013Z,7.28
2019-03-06T21:10:30.385Z,7.19
2019-03-06T21:12:59.723Z,7.16
2019-03-06T21:15:29.097Z,7.16
2019-03-06T21:17:58.439Z,7.12
2019-03-06T21:20:27.815Z,7.02
2019-03-06T21:22:57.159Z,7.07
2019-03-06T21:25:26.536Z,7.04
2019-03-06T21:27:55.879Z,7.03
2019-03-06T21:30:27.294Z,7.11
2019-03-06T21:32:56.638Z,7.14
2019-03-06T21:35:26.080Z,7.02
2019-03-06T21:37:55.522Z,7.00
2019-03-06T21:40:26.398Z,6.97
2019-03-06T21:42:55.732Z,7.00
2019-03-06T21:45:25.176Z,7.02
2019-03-06T21:47:54.515Z,7.03
2019-03-06T21:50:23.894Z,7.02
2019-03-06T21:52:53.237Z,7.09
2019-03-06T21:55:22.598Z,7.09
2019-03-06T21:57:51.992Z,7.13
2019-03-06T22:00:22.399Z,7.12
2019-03-06T22:02:51.742Z,7.07
2019-03-06T22:05:21.108Z,7.05
2019-03-06T22:07:51.430Z,7.08
2019-03-06T22:10:20.860Z,7.02
2019-03-06T22:12:50.281Z,7.03
2019-03-06T22:15:23.075Z,7.07
2019-03-06T22:17:52.415Z,7.11
2019-03-06T22:20:21.779Z,7.10
2019-03-06T22:22:51.191Z,7.09
2019-03-06T22:25:20.738Z,7.15
2019-03-06T22:27:50.076Z,7.21
2019-03-06T22:30:23.386Z,7.16
2019-03-06T22:32:52.863Z,7.13
2019-03-06T22:35:22.308Z,7.17
2019-03-06T22:37:51.660Z,7.18
2019-03-06T22:40:21.091Z,7.13
2019-03-06T22:42:50.452Z,7.14
2019-03-06T22:45:21.800Z,7.09
2019-03-06T22:47:51.142Z,7.07
2019-03-06T22:50:20.715Z,7.03
2019-03-06T22:52:50.336Z,7.00
2019-03-06T22:55:20.126Z,7.04
2019-03-06T22:57:49.496Z,7.00
2019-03-06T23:00:30.830Z,7.03
2019-03-06T23:03:00.342Z,7.04
2019-03-06T23:05:33.676Z,7.09
2019-03-06T23:08:03.096Z,7.01
2019-03-06T23:10:32.472Z,7.01
2019-03-06T23:13:01.851Z,7.00
2019-03-06T23:15:31.192Z,6.99
2019-03-06T23:18:00.744Z,6.96
2019-03-06T23:20:30.085Z,6.89
2019-03-06T23:22:59.449Z,6.93
2019-03-06T23:25:28.793Z,6.87
2019-03-06T23:27:58.167Z,6.92
2019-03-06T23:30:27.507Z,6.97
2019-03-06T23:32:56.871Z,6.95
2019-03-06T23:35:26.211Z,6.93
2019-03-06T23:37:55.582Z,6.93
2019-03-06T23:40:24.924Z,6.87
2019-03-06T23:42:54.380Z,6.88
2019-03-06T23:45:23.931Z,6.87
2019-03-06T23:47:53.375Z,6.84
2019-03-06T23:50:22.711Z,6.82
2019-03-06T23:53:06.234Z,6.79
2019-03-06T23:55:35.584Z,6.74
2019-03-06T23:58:05.025Z,6.76
